Time;durP1;ratioP1;P1;durP2;ratioP2;P2;SDS_P1;SDS_P2;PMS_P1;PMS_P2;Temp;Humidity;BMP_temperature;BMP_pressure;BME280_temperature;BME280_humidity;BME280_pressure;Samples;Min_cycle;Max_cycle;Signal;HPM_P1;HPM_P2
2021/11/12 00:04:11;;;;;;;76.30;32.10;;;9.80;99.90;;;;;;5059475;28;20028;-73
2021/11/12 00:14:19;;;;;;;74.15;30.85;;;9.70;99.90;;;;;;5069645;28;20012;-73
2021/11/12 00:16:45;;;;;;;77.65;30.92;;;9.80;99.90;;;;;;5068422;28;20081;-74
2021/11/12 00:19:11;;;;;;;78.00;33.33;;;9.80;99.90;;;;;;5069361;28;20121;-73
2021/11/12 00:21:37;;;;;;;73.57;31.42;;;9.70;99.90;;;;;;5062295;28;20025;-73
2021/11/12 00:24:03;;;;;;;97.82;38.05;;;9.70;99.90;;;;;;5063669;28;20100;-73
2021/11/12 00:26:29;;;;;;;90.82;34.30;;;9.70;99.90;;;;;;5066290;28;20037;-74
2021/11/12 00:28:58;;;;;;;76.78;32.53;;;9.70;99.90;;;;;;5062062;28;20531;-73
2021/11/12 00:34:07;;;;;;;97.90;35.30;;;9.70;99.90;;;;;;5064264;28;20466;-73
2021/11/12 00:36:48;;;;;;;89.20;32.67;;;9.70;99.90;;;;;;5059436;28;20028;-74
2021/11/12 00:39:25;;;;;;;84.78;33.67;;;9.70;99.90;;;;;;5063097;28;20397;-72
2021/11/12 00:44:36;;;;;;;101.88;35.72;;;9.70;99.90;;;;;;5061165;28;20080;-72
2021/11/12 00:47:04;;;;;;;105.60;36.97;;;9.70;99.90;;;;;;5054755;28;20037;-73
2021/11/12 00:49:34;;;;;;;94.53;35.72;;;9.70;99.90;;;;;;5060883;28;20091;-73
2021/11/12 00:52:07;;;;;;;86.03;35.00;;;9.70;99.90;;;;;;5065677;28;20021;-73
2021/11/12 00:54:32;;;;;;;109.82;39.10;;;9.70;99.90;;;;;;5066625;28;20083;-73
2021/11/12 00:56:58;;;;;;;97.68;37.65;;;9.60;99.90;;;;;;5069203;28;20029;-73
2021/11/12 00:59:24;;;;;;;93.65;34.97;;;9.60;99.90;;;;;;5066644;28;20094;-74
2021/11/12 01:01:51;;;;;;;102.47;39.05;;;9.60;99.90;;;;;;5065596;28;20056;-74
2021/11/12 01:04:20;;;;;;;108.30;39.15;;;9.60;99.90;;;;;;5068411;28;20549;-74
2021/11/12 01:06:47;;;;;;;110.75;39.83;;;9.60;99.90;;;;;;5067118;28;20029;-73
2021/11/12 01:09:17;;;;;;;97.63;35.83;;;9.50;99.90;;;;;;5064586;28;20092;-73
2021/11/12 01:11:45;;;;;;;95.63;35.25;;;9.60;99.90;;;;;;5068766;28;20025;-73
2021/11/12 01:14:13;;;;;;;90.35;35.60;;;9.60;99.90;;;;;;5067239;28;20013;-73
2021/11/12 01:16:39;;;;;;;90.43;35.45;;;9.60;99.90;;;;;;5068157;28;20666;-73
2021/11/12 01:19:09;;;;;;;88.82;35.25;;;9.60;99.90;;;;;;5067013;28;20043;-73
2021/11/12 01:21:37;;;;;;;97.13;36.90;;;9.60;99.90;;;;;;5066952;28;20029;-73
2021/11/12 01:24:03;;;;;;;93.65;36.67;;;9.70;99.90;;;;;;5067254;28;20135;-73
2021/11/12 01:26:30;;;;;;;95.45;35.90;;;9.60;99.90;;;;;;5071276;28;20025;-73
2021/11/12 01:28:57;;;;;;;89.53;33.78;;;9.60;99.90;;;;;;5064127;28;20029;-73
2021/11/12 01:31:27;;;;;;;82.90;32.92;;;9.60;99.90;;;;;;5066366;28;20079;-73
2021/11/12 01:33:53;;;;;;;91.57;34.22;;;9.60;99.90;;;;;;5062540;28;20043;-73
2021/11/12 01:38:48;;;;;;;82.30;34.55;;;9.60;99.90;;;;;;5067036;28;20085;-73
2021/11/12 01:41:14;;;;;;;86.35;33.95;;;9.60;99.90;;;;;;5064334;28;20039;-72
2021/11/12 01:43:44;;;;;;;76.20;32.63;;;9.70;99.90;;;;;;5066063;28;20039;-73
2021/11/12 01:49:00;;;;;;;86.15;33.20;;;9.70;99.90;;;;;;5060832;28;20061;-73
2021/11/12 01:56:57;;;;;;;86.63;34.38;;;9.70;99.90;;;;;;5068909;28;20123;-73
2021/11/12 01:59:23;;;;;;;97.38;37.50;;;9.80;99.90;;;;;;5068561;28;20616;-73
2021/11/12 02:01:59;;;;;;;96.63;37.35;;;9.80;99.90;;;;;;5065661;28;20099;-73
2021/11/12 02:04:30;;;;;;;98.55;38.35;;;9.70;99.90;;;;;;5063587;28;20040;-73
2021/11/12 02:06:57;;;;;;;;;;;9.70;99.90;;;;;;5066582;28;20074;-73
2021/11/12 02:09:24;;;;;;;87.32;33.88;;;9.70;99.90;;;;;;5065942;28;19951;-72
2021/11/12 02:12:18;;;;;;;83.28;32.53;;;9.70;99.90;;;;;;5067757;28;20020;-72
2021/11/12 02:14:46;;;;;;;86.90;36.13;;;9.60;99.90;;;;;;5064463;28;20501;-74
2021/11/12 02:17:23;;;;;;;93.70;34.83;;;9.60;99.90;;;;;;5066003;28;20125;-72
2021/11/12 02:19:58;;;;;;;87.45;34.58;;;9.70;99.90;;;;;;5064254;28;20107;-73
2021/11/12 02:22:28;;;;;;;89.68;35.80;;;9.70;99.90;;;;;;5068185;28;20024;-73
2021/11/12 02:25:32;;;;;;;86.38;35.17;;;9.70;99.90;;;;;;5064138;28;20076;-73
2021/11/12 02:27:56;;;;;;;77.80;32.75;;;9.70;99.90;;;;;;5065931;28;20040;-73
2021/11/12 02:30:28;;;;;;;70.32;29.23;;;9.70;99.90;;;;;;5067602;28;20037;-73
2021/11/12 02:33:05;;;;;;;82.82;33.88;;;9.70;99.90;;;;;;5062916;28;20079;-74
2021/11/12 02:35:33;;;;;;;80.75;34.00;;;9.70;99.90;;;;;;5065486;28;20032;-73
2021/11/12 02:38:01;;;;;;;74.32;32.72;;;9.70;99.90;;;;;;5067310;22;20170;-75
2021/11/12 02:40:26;;;;;;;73.28;31.75;;;9.70;99.90;;;;;;5049414;28;20079;-75
2021/11/12 02:42:53;;;;;;;80.47;34.28;;;9.70;99.90;;;;;;5047548;28;20021;-76
2021/11/12 02:45:19;;;;;;;66.57;30.73;;;9.70;99.90;;;;;;5047245;28;20104;-75
2021/11/12 02:47:44;;;;;;;73.60;31.52;;;9.70;99.90;;;;;;5042943;28;20119;-75
2021/11/12 02:50:11;;;;;;;68.95;30.52;;;9.60;99.90;;;;;;5041307;28;20056;-75
2021/11/12 02:52:38;;;;;;;69.20;30.88;;;9.60;99.90;;;;;;5040227;28;20635;-76
2021/11/12 02:55:04;;;;;;;67.15;30.45;;;9.60;99.90;;;;;;5042953;28;20079;-76
2021/11/12 02:57:34;;;;;;;67.10;30.23;;;9.60;99.90;;;;;;5043604;28;20041;-76
2021/11/12 02:59:59;;;;;;;66.47;30.10;;;9.60;99.90;;;;;;5044928;28;20425;-76
2021/11/12 03:02:25;;;;;;;60.17;29.55;;;9.60;99.90;;;;;;5044501;28;20025;-74
2021/11/12 03:04:51;;;;;;;55.45;26.70;;;9.60;99.90;;;;;;5042163;28;20044;-74
2021/11/12 03:07:17;;;;;;;60.00;27.83;;;9.60;99.90;;;;;;5041347;28;20025;-73
2021/11/12 03:09:43;;;;;;;59.03;27.85;;;9.60;99.90;;;;;;5046291;28;20056;-75
2021/11/12 03:12:09;;;;;;;63.08;28.88;;;9.70;99.90;;;;;;5040095;28;20393;-73
2021/11/12 03:14:35;;;;;;;62.45;28.52;;;9.70;99.90;;;;;;5043310;28;20037;-74
2021/11/12 03:17:02;;;;;;;57.92;28.48;;;9.60;99.90;;;;;;5043511;28;20033;-76
2021/11/12 03:19:29;;;;;;;59.33;28.15;;;9.60;99.90;;;;;;5044433;28;20528;-75
2021/11/12 03:22:07;;;;;;;55.78;27.08;;;9.60;99.90;;;;;;5041628;28;20021;-76
2021/11/12 03:24:46;;;;;;;52.97;25.60;;;9.60;99.90;;;;;;5048162;28;20032;-75
2021/11/12 04:02:28;;;;;;;59.35;28.13;;;9.70;99.90;;;;;;5047129;28;20083;-75
2021/11/12 04:21:10;;;;;;;64.72;31.27;;;9.60;99.90;;;;;;5043899;28;20025;-75
2021/11/12 05:10:28;;;;;;;68.03;31.05;;;9.50;99.90;;;;;;5047817;28;20585;-75
2021/11/12 05:50:21;;;;;;;80.15;33.28;;;9.30;99.90;;;;;;5049160;28;20027;-76
2021/11/12 05:55:32;;;;;;;76.20;34.70;;;9.30;99.90;;;;;;5049734;28;20025;-77
2021/11/12 05:57:59;;;;;;;66.90;32.90;;;9.30;99.90;;;;;;5043929;28;20040;-76
2021/11/12 06:00:26;;;;;;;69.50;32.58;;;9.30;99.90;;;;;;5044388;28;20533;-75
2021/11/12 06:02:52;;;;;;;74.75;31.67;;;9.20;99.90;;;;;;5045962;28;20025;-76
2021/11/12 06:05:18;;;;;;;70.25;32.08;;;9.10;99.90;;;;;;5050355;28;20048;-75
2021/11/12 06:07:47;;;;;;;66.38;31.05;;;9.10;99.90;;;;;;5042242;28;20028;-76
2021/11/12 06:10:14;;;;;;;65.78;30.10;;;9.20;99.90;;;;;;5044655;28;20071;-73
2021/11/12 06:12:40;;;;;;;73.80;34.17;;;9.10;99.90;;;;;;5047212;28;20108;-74
2021/11/12 06:15:06;;;;;;;68.90;32.20;;;9.10;99.90;;;;;;5045413;28;20100;-72
2021/11/12 06:17:33;;;;;;;70.80;32.08;;;9.10;99.90;;;;;;5045093;28;20037;-76
2021/11/12 06:20:00;;;;;;;69.88;29.77;;;9.10;99.90;;;;;;5046721;28;20028;-74
2021/11/12 06:22:26;;;;;;;63.03;28.45;;;9.10;99.90;;;;;;5049541;28;20025;-76
2021/11/12 06:24:52;;;;;;;75.07;32.92;;;9.10;99.90;;;;;;5045852;28;20039;-76
2021/11/12 06:27:18;;;;;;;64.22;30.67;;;9.20;99.90;;;;;;5048486;28;20029;-73
2021/11/12 06:29:45;;;;;;;66.45;28.15;;;9.10;99.90;;;;;;5047222;28;20039;-76
2021/11/12 06:32:11;;;;;;;71.63;30.30;;;9.10;99.90;;;;;;5042830;28;20119;-77
2021/11/12 06:34:37;;;;;;;63.85;30.13;;;9.10;99.90;;;;;;5047049;28;20034;-76
2021/11/12 06:37:03;;;;;;;59.15;27.80;;;9.00;99.90;;;;;;5046667;28;20108;-77
2021/11/12 06:39:30;;;;;;;70.95;29.85;;;9.10;99.90;;;;;;5053344;28;20120;-77
2021/11/12 06:41:58;;;;;;;65.45;28.40;;;9.00;99.90;;;;;;5050259;28;20025;-77
2021/11/12 06:44:40;;;;;;;68.35;28.50;;;9.00;99.90;;;;;;5055498;28;20451;-77
2021/11/12 06:49:54;;;;;;;58.10;27.33;;;9.00;99.90;;;;;;5050142;28;20031;-77
2021/11/12 06:52:21;;;;;;;62.72;27.70;;;9.00;99.90;;;;;;5050488;28;20032;-76
2021/11/12 06:54:47;;;;;;;59.13;27.30;;;9.10;99.90;;;;;;5049022;28;20028;-77
2021/11/12 06:57:14;;;;;;;68.75;28.52;;;9.10;99.90;;;;;;5045074;28;20479;-76
2021/11/12 06:59:40;;;;;;;64.43;27.90;;;9.00;99.90;;;;;;5042364;28;20564;-77
2021/11/12 07:02:08;;;;;;;57.80;25.13;;;9.10;99.90;;;;;;5042063;28;20041;-75
2021/11/12 07:04:34;;;;;;;53.80;24.88;;;9.10;99.90;;;;;;5046196;28;20100;-75
2021/11/12 07:07:00;;;;;;;55.20;23.92;;;9.10;99.90;;;;;;5048456;28;20565;-76
2021/11/12 07:09:26;;;;;;;50.22;23.27;;;8.90;99.90;;;;;;5045328;28;20403;-76
2021/11/12 07:11:52;;;;;;;52.60;23.55;;;8.90;99.90;;;;;;5044848;28;20029;-76
2021/11/12 07:14:18;;;;;;;54.60;24.55;;;8.90;99.90;;;;;;5049843;28;20104;-76
2021/11/12 07:16:44;;;;;;;56.60;22.95;;;8.90;99.90;;;;;;5043712;28;20029;-76
2021/11/12 07:19:13;;;;;;;55.60;24.95;;;8.90;99.90;;;;;;5049035;28;20171;-75
2021/11/12 07:21:39;;;;;;;53.78;23.77;;;8.90;99.90;;;;;;5048337;28;20079;-76
2021/11/12 07:24:05;;;;;;;57.00;24.50;;;8.90;99.90;;;;;;5045695;28;20040;-74
2021/11/12 07:26:32;;;;;;;56.10;23.77;;;8.90;99.90;;;;;;5046738;28;20044;-75
2021/11/12 07:28:59;;;;;;;50.47;21.23;;;8.90;99.90;;;;;;5049412;28;20022;-75
2021/11/12 07:31:25;;;;;;;45.47;21.05;;;8.90;99.90;;;;;;5044154;28;20063;-76
2021/11/12 07:33:52;;;;;;;44.28;18.65;;;8.90;99.90;;;;;;5050783;28;20485;-76
2021/11/12 07:38:59;;;;;;;41.63;16.42;;;8.90;99.90;;;;;;5044874;28;20025;-76
2021/11/12 07:48:59;;;;;;;42.88;17.75;;;8.80;99.90;;;;;;5050568;28;20067;-76
2021/11/12 07:51:25;;;;;;;47.45;18.02;;;8.90;99.90;;;;;;5048860;28;20017;-75
2021/11/12 07:53:51;;;;;;;39.72;16.27;;;8.90;99.90;;;;;;5041114;28;20017;-75
2021/11/12 07:56:16;;;;;;;45.17;18.25;;;8.90;99.90;;;;;;5044711;28;20048;-75
2021/11/12 07:58:42;;;;;;;41.90;16.52;;;8.90;99.90;;;;;;5050507;28;20031;-76
2021/11/12 08:01:08;;;;;;;41.92;16.60;;;8.90;99.90;;;;;;5044896;28;20025;-76
2021/11/12 08:03:34;;;;;;;37.72;15.75;;;8.90;99.90;;;;;;5047691;28;20028;-76
2021/11/12 08:06:02;;;;;;;34.83;14.55;;;8.90;99.90;;;;;;5051817;28;20013;-76
2021/11/12 08:08:30;;;;;;;32.70;13.88;;;8.90;99.90;;;;;;5051590;28;20029;-76
2021/11/12 08:10:59;;;;;;;32.25;12.05;;;8.90;99.90;;;;;;5050787;28;20079;-76
2021/11/12 08:13:34;;;;;;;22.65;10.00;;;8.90;99.90;;;;;;5049960;28;20108;-77
2021/11/12 08:18:53;;;;;;;23.02;9.45;;;8.80;99.90;;;;;;5052608;28;20104;-76
2021/11/12 08:21:30;;;;;;;18.35;9.18;;;8.70;99.90;;;;;;5049236;28;20557;-76
2021/11/12 08:24:10;;;;;;;20.23;8.60;;;8.70;99.90;;;;;;5047019;28;20021;-77
2021/11/12 08:26:57;;;;;;;21.10;8.57;;;8.70;99.90;;;;;;5048940;28;20071;-76
2021/11/12 08:34:51;;;;;;;19.90;8.23;;;8.80;99.90;;;;;;5051329;28;20492;-77
2021/11/12 08:42:29;;;;;;;22.23;9.35;;;8.80;99.90;;;;;;5038982;28;20131;-77
2021/11/12 08:45:04;;;;;;;19.55;9.07;;;8.80;99.90;;;;;;5051740;28;20032;-77
2021/11/12 08:47:33;;;;;;;20.52;9.02;;;8.90;99.90;;;;;;5050880;28;20033;-77
2021/11/12 08:50:00;;;;;;;21.70;9.32;;;8.90;99.90;;;;;;5051837;28;20033;-77
2021/11/12 08:52:27;;;;;;;20.20;10.02;;;8.90;99.90;;;;;;5053683;28;20021;-76
2021/11/12 08:54:52;;;;;;;24.52;10.23;;;8.90;99.90;;;;;;5054304;28;20033;-76
2021/11/12 08:57:19;;;;;;;20.92;10.35;;;8.90;99.90;;;;;;5053772;28;20403;-77
2021/11/12 08:59:52;;;;;;;19.95;9.65;;;9.00;99.90;;;;;;5044923;28;20751;-76
2021/11/12 09:02:25;;;;;;;21.42;9.30;;;8.90;99.90;;;;;;5050671;28;20025;-76
2021/11/12 09:04:51;;;;;;;24.45;10.35;;;9.00;99.90;;;;;;5045501;28;20025;-77
2021/11/12 09:07:18;;;;;;;23.63;9.95;;;9.00;99.90;;;;;;5047516;28;20033;-76
2021/11/12 09:09:45;;;;;;;21.30;10.20;;;9.00;99.90;;;;;;5049709;28;20059;-76
2021/11/12 09:12:13;;;;;;;25.27;11.52;;;9.00;99.90;;;;;;5051106;28;20021;-76
2021/11/12 09:14:45;;;;;;;27.52;10.95;;;9.00;99.90;;;;;;5043496;28;20053;-75
2021/11/12 09:17:11;;;;;;;27.05;11.32;;;9.00;99.90;;;;;;5051955;28;20021;-77
2021/11/12 09:19:51;;;;;;;23.17;10.93;;;9.00;99.90;;;;;;5047603;28;20441;-77
2021/11/12 09:22:19;;;;;;;27.63;11.02;;;9.00;99.90;;;;;;5046287;28;20053;-76
2021/11/12 09:24:47;;;;;;;30.77;10.95;;;9.00;99.90;;;;;;5048031;28;20033;-76
2021/11/12 09:27:14;;;;;;;29.30;11.52;;;8.90;99.90;;;;;;5049322;28;20036;-77
2021/11/12 09:29:41;;;;;;;28.58;11.00;;;8.90;99.90;;;;;;5045839;28;20152;-76
2021/11/12 09:32:08;;;;;;;26.30;10.65;;;9.00;99.90;;;;;;5048930;28;20438;-76
2021/11/12 09:34:37;;;;;;;27.45;11.80;;;8.90;99.90;;;;;;5046417;28;20082;-75
2021/11/12 09:37:08;;;;;;;26.73;10.38;;;8.90;99.90;;;;;;5050059;28;20057;-76
2021/11/12 09:39:34;;;;;;;25.52;10.48;;;9.00;99.90;;;;;;5042959;28;20517;-76
2021/11/12 09:42:04;;;;;;;28.88;12.43;;;9.00;99.90;;;;;;5050511;28;20037;-75
2021/11/12 09:44:31;;;;;;;28.92;12.18;;;9.10;99.90;;;;;;5047624;28;20051;-76
2021/11/12 09:46:57;;;;;;;27.92;12.27;;;9.00;99.90;;;;;;5047548;28;20107;-76
2021/11/12 09:49:23;;;;;;;24.05;11.57;;;9.00;99.90;;;;;;5047059;28;20156;-76
2021/11/12 09:51:49;;;;;;;25.33;11.80;;;9.00;99.90;;;;;;5047950;28;20021;-76
2021/11/12 09:54:15;;;;;;;26.02;10.88;;;8.90;99.90;;;;;;5048881;28;20434;-75
2021/11/12 09:56:40;;;;;;;22.00;11.32;;;8.90;99.90;;;;;;5041997;28;20035;-76
2021/11/12 09:59:06;;;;;;;22.48;10.57;;;9.00;99.90;;;;;;5044025;28;20111;-75
2021/11/12 10:01:35;;;;;;;21.95;11.07;;;9.00;99.90;;;;;;5045474;28;20115;-77
2021/11/12 10:04:05;;;;;;;17.45;10.00;;;9.00;99.90;;;;;;5050785;28;20120;-77
2021/11/12 10:06:34;;;;;;;17.50;9.40;;;9.00;99.90;;;;;;5046903;28;20159;-76
2021/11/12 10:08:59;;;;;;;14.63;8.80;;;9.10;99.90;;;;;;5045042;28;20421;-76
2021/11/12 10:11:33;;;;;;;14.50;9.05;;;9.20;99.90;;;;;;5050734;28;20036;-77
2021/11/12 10:14:11;;;;;;;17.95;10.55;;;9.30;99.90;;;;;;5045801;28;20528;-76
2021/11/12 10:16:36;;;;;;;16.08;9.65;;;9.30;99.90;;;;;;5046127;28;20523;-74
2021/11/12 10:19:19;;;;;;;15.35;9.52;;;9.30;99.90;;;;;;5048639;28;20029;-76
2021/11/12 10:21:58;;;;;;;13.23;9.25;;;9.40;99.90;;;;;;5048717;28;20037;-75
2021/11/12 10:24:30;;;;;;;15.82;9.68;;;9.50;99.90;;;;;;5053189;28;20025;-76
2021/11/12 10:27:02;;;;;;;14.93;9.48;;;9.60;99.90;;;;;;5050135;28;20609;-76
2021/11/12 10:29:33;;;;;;;15.40;9.60;;;9.70;99.90;;;;;;5049156;28;20032;-75
2021/11/12 10:32:03;;;;;;;14.82;9.55;;;9.60;99.90;;;;;;5051632;28;20075;-76
2021/11/12 10:34:31;;;;;;;15.55;9.23;;;9.50;99.90;;;;;;5052114;28;20020;-77
2021/11/12 10:37:03;;;;;;;12.75;8.65;;;9.50;99.90;;;;;;5047799;28;20037;-77
2021/11/12 10:39:51;;;;;;;14.57;9.55;;;9.50;99.90;;;;;;5049062;28;20052;-74
2021/11/12 10:42:20;;;;;;;14.75;9.70;;;9.50;99.90;;;;;;5051393;28;20113;-77
2021/11/12 10:44:59;;;;;;;12.57;7.90;;;9.60;99.90;;;;;;5078237;28;20032;-75
2021/11/12 10:47:29;;;;;;;13.15;8.57;;;9.70;99.90;;;;;;5048098;28;20067;-76
2021/11/12 10:49:59;;;;;;;13.65;9.07;;;9.80;99.90;;;;;;5049467;28;20029;-74
2021/11/12 10:52:28;;;;;;;13.95;9.35;;;9.80;99.90;;;;;;5053068;28;20032;-76
2021/11/12 10:55:01;;;;;;;16.48;10.40;;;9.80;99.90;;;;;;5047617;28;20390;-76
2021/11/12 10:57:35;;;;;;;15.45;10.23;;;9.80;99.90;;;;;;5047163;28;20029;-76
2021/11/12 11:00:12;;;;;;;15.68;9.65;;;9.80;99.90;;;;;;5048241;28;20055;-76
2021/11/12 11:02:50;;;;;;;14.20;9.18;;;9.90;99.90;;;;;;5047819;28;20497;-77
2021/11/12 11:05:31;;;;;;;13.27;8.98;;;9.90;99.90;;;;;;5049102;28;20033;-77
2021/11/12 11:08:06;;;;;;;16.40;9.18;;;9.90;99.90;;;;;;5047976;28;20055;-76
2021/11/12 11:10:38;;;;;;;14.00;8.85;;;10.00;99.90;;;;;;5028734;28;20040;-77
2021/11/12 11:13:09;;;;;;;12.13;8.90;;;10.10;99.90;;;;;;5050516;28;20025;-76
2021/11/12 11:16:04;;;;;;;13.27;9.20;;;10.10;99.90;;;;;;5049018;28;20067;-76
2021/11/12 11:18:43;;;;;;;13.88;8.77;;;10.10;99.90;;;;;;5040041;28;20633;-76
2021/11/12 11:21:24;;;;;;;12.40;8.52;;;10.10;99.90;;;;;;5044811;28;20079;-76
2021/11/12 11:24:07;;;;;;;14.88;9.27;;;10.10;99.90;;;;;;5048308;28;20116;-77
2021/11/12 11:26:53;;;;;;;14.55;9.05;;;10.20;99.90;;;;;;5051957;28;20055;-77
2021/11/12 11:29:24;;;;;;;13.13;8.80;;;10.20;99.90;;;;;;5046128;28;20087;-76
2021/11/12 11:31:54;;;;;;;14.55;9.13;;;10.20;99.90;;;;;;5049274;28;20032;-77
2021/11/12 11:34:21;;;;;;;17.83;9.13;;;10.30;99.90;;;;;;5045951;28;20104;-77
2021/11/12 11:36:49;;;;;;;13.55;8.55;;;10.30;99.90;;;;;;5047477;28;20068;-76
2021/11/12 11:39:17;;;;;;;13.23;8.30;;;10.30;99.90;;;;;;5046847;28;20021;-77
2021/11/12 11:41:44;;;;;;;12.75;7.90;;;10.40;99.90;;;;;;5050297;28;20039;-77
2021/11/12 11:44:12;;;;;;;15.75;9.07;;;10.40;99.90;;;;;;5052588;28;20040;-76
2021/11/12 11:46:41;;;;;;;14.50;8.95;;;10.40;99.90;;;;;;5051012;28;20047;-76
2021/11/12 11:49:13;;;;;;;14.13;8.48;;;10.30;99.90;;;;;;5050681;28;20496;-76
2021/11/12 11:51:52;;;;;;;17.52;9.13;;;10.30;99.90;;;;;;5050628;28;20029;-77
2021/11/12 11:54:21;;;;;;;14.25;7.85;;;10.30;99.90;;;;;;5051293;28;20053;-77
2021/11/12 11:56:52;;;;;;;13.48;7.50;;;10.20;99.90;;;;;;5048653;28;20030;-77
2021/11/12 11:59:40;;;;;;;17.63;9.30;;;10.10;99.90;;;;;;5049523;28;20085;-77
2021/11/12 12:02:20;;;;;;;17.77;9.32;;;10.10;99.90;;;;;;5056275;28;20043;-75
2021/11/12 12:04:49;;;;;;;17.33;9.63;;;10.10;99.90;;;;;;5048376;28;20033;-76
2021/11/12 12:07:52;;;;;;;15.02;9.07;;;10.00;99.90;;;;;;5045155;28;20021;-76
2021/11/12 12:10:22;;;;;;;18.48;9.90;;;10.10;99.90;;;;;;5050874;28;20029;-76
2021/11/12 12:12:50;;;;;;;14.55;8.48;;;10.10;99.90;;;;;;5050527;28;20025;-76
2021/11/12 12:15:22;;;;;;;14.90;8.77;;;10.10;99.90;;;;;;5048065;28;20017;-77
2021/11/12 12:17:50;;;;;;;14.95;8.77;;;10.10;99.90;;;;;;5047803;28;20124;-77
2021/11/12 13:22:41;;;;;;;13.30;7.35;;;10.40;99.90;;;;;;5044595;28;20408;-75
2021/11/12 13:25:10;;;;;;;11.75;7.82;;;10.40;99.90;;;;;;5042749;28;20033;-76
2021/11/12 13:27:37;;;;;;;12.05;7.45;;;10.40;99.90;;;;;;5041601;28;20124;-73
2021/11/12 13:30:05;;;;;;;11.40;6.70;;;10.40;99.90;;;;;;5042743;28;20392;-76
2021/11/12 13:32:39;;;;;;;8.75;6.25;;;10.40;99.90;;;;;;5042222;28;20071;-75
2021/11/12 13:35:06;;;;;;;9.85;6.20;;;10.40;99.90;;;;;;5038351;28;20029;-73
2021/11/12 13:37:31;;;;;;;10.25;5.40;;;10.40;99.90;;;;;;5039617;28;20032;-75
2021/11/12 13:40:10;;;;;;;10.70;5.32;;;10.40;99.90;;;;;;5043309;28;20040;-75
2021/11/12 13:42:48;;;;;;;9.02;5.40;;;10.30;99.90;;;;;;5041469;28;20739;-74
2021/11/12 13:45:18;;;;;;;8.23;5.30;;;10.30;99.90;;;;;;5040081;28;20029;-73
2021/11/12 13:47:45;;;;;;;8.13;5.05;;;10.30;99.90;;;;;;5038019;28;20033;-74
2021/11/12 13:50:12;;;;;;;11.57;5.97;;;10.30;99.90;;;;;;5042315;28;21574;-75
2021/11/12 13:52:42;;;;;;;10.07;5.53;;;10.30;99.90;;;;;;5040458;28;20101;-74
2021/11/12 13:55:16;;;;;;;8.90;5.43;;;10.20;99.90;;;;;;5044417;28;20148;-76
2021/11/12 13:57:59;;;;;;;8.55;5.22;;;10.10;99.90;;;;;;5042333;28;20039;-74
2021/11/12 14:00:27;;;;;;;8.23;5.20;;;10.10;99.90;;;;;;5044694;28;20394;-75
2021/11/12 14:02:59;;;;;;;8.30;5.53;;;10.10;99.90;;;;;;5048321;28;20032;-74
2021/11/12 14:05:26;;;;;;;8.10;5.47;;;10.10;99.90;;;;;;5050989;28;20031;-74
2021/11/12 14:08:18;;;;;;;7.63;4.13;;;10.00;99.90;;;;;;5049659;28;20028;-76
2021/11/12 14:10:49;;;;;;;7.93;4.40;;;10.00;99.90;;;;;;5043181;28;20175;-75
2021/11/12 14:13:18;;;;;;;7.35;4.47;;;9.90;99.90;;;;;;5046221;28;20028;-75
2021/11/12 14:16:25;;;;;;;8.82;4.50;;;9.90;99.90;;;;;;5043363;28;20339;-76
2021/11/12 14:21:47;;;;;;;7.00;4.10;;;9.90;99.90;;;;;;5044379;28;20059;-75
2021/11/12 14:41:14;;;;;;;7.15;4.57;;;9.80;99.90;;;;;;5046752;28;20059;-74
2021/11/12 14:49:00;;;;;;;9.85;5.60;;;9.60;99.90;;;;;;5046580;28;20038;-74
2021/11/12 14:51:35;;;;;;;7.13;4.30;;;9.70;99.90;;;;;;5041320;28;20454;-76
2021/11/12 14:54:07;;;;;;;8.65;4.55;;;9.60;99.90;;;;;;5042731;28;20027;-73
2021/11/12 14:56:33;;;;;;;10.98;5.43;;;9.60;99.90;;;;;;5041897;28;20029;-75
2021/11/12 14:59:15;;;;;;;7.18;4.47;;;9.60;99.90;;;;;;5045562;28;20104;-75
2021/11/12 15:01:41;;;;;;;6.97;4.75;;;9.60;99.90;;;;;;5044571;28;20091;-75
2021/11/12 15:04:06;;;;;;;7.47;5.20;;;9.50;99.90;;;;;;5050484;28;20039;-74
2021/11/12 15:06:35;;;;;;;7.35;4.78;;;9.50;99.90;;;;;;5051792;28;20985;-73
2021/11/12 15:09:06;;;;;;;6.80;4.53;;;9.50;99.90;;;;;;5047944;28;20032;-73
2021/11/12 15:11:33;;;;;;;6.83;4.80;;;9.50;99.90;;;;;;5049199;28;20490;-73
2021/11/12 15:14:11;;;;;;;10.10;5.18;;;9.50;99.90;;;;;;5053241;28;20294;-73
2021/11/12 15:16:40;;;;;;;6.57;4.85;;;9.40;99.90;;;;;;5071819;28;20045;-73
2021/11/12 15:19:09;;;;;;;6.90;5.13;;;9.40;99.90;;;;;;5052451;28;20025;-74
2021/11/12 15:21:39;;;;;;;7.40;5.07;;;9.40;99.90;;;;;;5048207;28;20053;-74
2021/11/12 15:29:32;;;;;;;10.45;6.68;;;9.30;99.90;;;;;;5049170;28;20039;-73
2021/11/12 15:32:03;;;;;;;10.77;6.40;;;9.30;99.90;;;;;;5049809;28;20413;-73
2021/11/12 15:34:32;;;;;;;10.15;6.32;;;9.40;99.90;;;;;;5049288;28;20025;-74
2021/11/12 15:37:08;;;;;;;13.02;8.02;;;9.30;99.90;;;;;;5053524;28;20031;-73
2021/11/12 15:44:37;;;;;;;14.75;9.75;;;9.30;99.90;;;;;;5049212;28;20078;-73
2021/11/12 15:50:17;;;;;;;17.10;9.65;;;9.20;99.90;;;;;;5034654;28;20037;-74
2021/11/12 15:58:24;;;;;;;16.42;10.48;;;9.10;99.90;;;;;;5045431;28;20041;-75
2021/11/12 16:11:38;;;;;;;15.93;11.77;;;9.00;99.90;;;;;;5055952;28;20060;-73
2021/11/12 16:14:23;;;;;;;15.65;11.27;;;9.00;99.90;;;;;;5051005;28;20108;-73
2021/11/12 16:19:57;;;;;;;19.05;11.60;;;8.90;99.90;;;;;;5049945;28;20033;-73
2021/11/12 16:27:46;;;;;;;19.42;13.38;;;8.70;99.90;;;;;;5057294;28;20024;-73
2021/11/12 16:30:14;;;;;;;20.27;13.23;;;8.70;99.90;;;;;;5057401;28;20025;-72
2021/11/12 16:35:09;;;;;;;18.90;13.40;;;8.60;99.90;;;;;;5053998;28;20032;-73
2021/11/12 16:37:35;;;;;;;22.02;13.55;;;8.70;99.90;;;;;;5049268;28;20041;-73
2021/11/12 16:40:06;;;;;;;23.50;14.73;;;8.60;99.90;;;;;;5055096;28;20032;-72
2021/11/12 17:06:24;;;;;;;22.00;14.30;;;8.50;99.90;;;;;;5034553;28;20045;-73
2021/11/12 17:47:03;;;;;;;26.17;16.50;;;8.30;99.90;;;;;;5051772;28;20052;-73
2021/11/12 17:52:12;;;;;;;29.20;17.83;;;8.30;99.90;;;;;;5053848;28;20055;-73
2021/11/12 18:05:58;;;;;;;39.47;23.13;;;8.10;99.90;;;;;;5047798;28;20103;-73
2021/11/12 18:08:40;;;;;;;35.83;21.13;;;8.10;99.90;;;;;;5051627;28;20036;-73
2021/11/12 21:48:05;;;;;;;54.17;26.77;;;6.80;99.90;;;;;;5048251;28;20032;-73
2021/11/12 21:50:32;;;;;;;56.22;27.15;;;6.80;99.90;;;;;;5051170;28;20045;-74
2021/11/12 21:52:58;;;;;;;58.92;28.23;;;6.80;99.90;;;;;;5054934;28;20025;-73
2021/11/12 21:55:24;;;;;;;53.38;26.30;;;6.80;99.90;;;;;;5049778;28;20069;-74
2021/11/12 21:57:50;;;;;;;55.10;26.63;;;6.70;99.90;;;;;;5047867;28;20029;-74
2021/11/12 22:00:16;;;;;;;52.85;26.65;;;6.80;99.90;;;;;;5049497;28;20029;-74
2021/11/12 22:02:42;;;;;;;64.65;28.55;;;6.70;99.90;;;;;;5052917;28;20033;-74
2021/11/12 22:05:08;;;;;;;53.92;26.70;;;6.70;99.90;;;;;;5052639;28;20039;-74
2021/11/12 22:07:37;;;;;;;54.85;26.00;;;6.70;99.90;;;;;;5051535;28;20112;-74
2021/11/12 22:10:05;;;;;;;61.28;28.73;;;6.70;99.90;;;;;;5050216;28;20053;-74
2021/11/12 22:12:31;;;;;;;62.08;27.88;;;6.80;99.90;;;;;;5050436;28;20021;-74
2021/11/12 22:14:56;;;;;;;58.22;28.23;;;6.70;99.90;;;;;;5052135;28;20422;-74
2021/11/12 22:17:22;;;;;;;60.45;28.25;;;6.70;99.90;;;;;;5054770;28;20040;-74
2021/11/12 22:19:48;;;;;;;59.10;28.27;;;6.70;99.90;;;;;;5047066;28;20040;-74
2021/11/12 22:22:14;;;;;;;59.70;27.05;;;6.70;99.90;;;;;;5051425;28;20031;-74
2021/11/12 22:24:40;;;;;;;807.58;407.30;;;6.70;99.90;;;;;;5050399;28;20040;-74
2021/11/12 22:27:06;;;;;;;265.75;121.35;;;6.70;99.90;;;;;;5052018;28;20506;-75
2021/11/12 22:29:32;;;;;;;87.45;41.67;;;6.70;99.90;;;;;;5050677;28;20033;-74
2021/11/12 22:31:58;;;;;;;67.90;32.10;;;6.70;99.90;;;;;;5046838;28;20045;-74
2021/11/12 22:34:24;;;;;;;110.18;54.22;;;6.70;99.90;;;;;;5051521;28;20021;-74
2021/11/12 22:36:50;;;;;;;98.47;49.65;;;6.70;99.90;;;;;;5051572;28;20096;-74
2021/11/12 22:39:17;;;;;;;62.70;28.42;;;6.70;99.90;;;;;;5051922;28;20024;-74
2021/11/12 22:41:45;;;;;;;62.58;27.58;;;6.70;99.90;;;;;;5050686;28;20029;-73
2021/11/12 22:44:11;;;;;;;59.13;27.35;;;6.70;99.90;;;;;;5052456;28;20025;-74
2021/11/12 22:46:38;;;;;;;55.67;25.42;;;6.70;99.90;;;;;;5045306;28;20242;-74
2021/11/12 22:49:05;;;;;;;63.33;28.27;;;6.70;99.90;;;;;;5053067;28;20025;-74
2021/11/12 22:51:32;;;;;;;61.05;26.50;;;6.70;99.90;;;;;;5054642;28;20021;-74
2021/11/12 22:53:59;;;;;;;58.92;26.95;;;6.70;99.90;;;;;;5048014;28;20033;-74
2021/11/12 22:56:25;;;;;;;65.40;29.23;;;6.70;99.90;;;;;;5056384;28;20030;-74
2021/11/12 22:58:52;;;;;;;66.30;28.25;;;6.60;99.90;;;;;;5044457;28;20894;-72
2021/11/12 23:01:22;;;;;;;67.85;30.27;;;6.60;99.90;;;;;;5053581;28;20029;-72
2021/11/12 23:03:48;;;;;;;62.25;28.10;;;6.60;99.90;;;;;;5048785;28;20466;-76
2021/11/12 23:06:14;;;;;;;62.53;28.35;;;6.60;99.90;;;;;;5048571;28;20112;-73